Time,TemperatureF,DewpointF,PressureIn,WindDirection,WindDirectionDegrees,WindSpeedMPH,WindSpeedGustMPH,Humidity,HourlyPrecipIn,Conditions,Clouds,dailyrainin,SoftwareType,DateUTC
2013-01-16 00:00:00,29.8,23.2,30.24,ESE,103,0.0,0.0,76,0.00,,---,0.00,VWS V14.01,2013-01-16 05:00:00,
2013-01-16 00:10:00,29.8,22.9,30.22,ESE,103,0.0,0.0,75,0.00,,---,0.00,VWS V14.01,2013-01-16 05:10:00,
2013-01-16 00:20:00,29.7,23.1,30.23,ESE,103,0.0,0.0,76,0.00,,---,0.00,VWS V14.01,2013-01-16 05:20:00,
2013-01-16 00:30:00,29.7,23.1,30.23,ESE,103,0.0,0.0,76,0.00,,---,0.00,VWS V14.01,2013-01-16 05:30:00,
2013-01-16 00:40:00,29.7,23.1,30.23,ESE,103,0.0,0.0,76,0.00,,---,0.00,VWS V14.01,2013-01-16 05:40:00,
2013-01-16 00:50:00,29.7,23.4,30.23,ESE,103,0.0,0.0,77,0.00,,---,0.00,VWS V14.01,2013-01-16 05:50:00,
2013-01-16 01:00:00,29.7,23.1,30.23,ESE,103,0.0,0.0,76,0.00,,---,0.00,VWS V14.01,2013-01-16 06:00:00,
2013-01-16 01:10:00,29.6,23.0,30.22,ESE,103,0.0,0.0,76,0.00,,---,0.00,VWS V14.01,2013-01-16 06:10:00,
2013-01-16 01:20:00,29.6,23.0,30.22,ESE,103,0.0,0.0,76,0.00,,---,0.00,VWS V14.01,2013-01-16 06:20:00,
2013-01-16 01:30:00,29.6,23.0,30.22,ESE,103,0.0,0.0,76,0.00,,---,0.00,VWS V14.01,2013-01-16 06:30:00,
2013-01-16 01:40:00,29.5,23.2,30.21,ESE,103,0.0,0.0,77,0.00,,---,0.00,VWS V14.01,2013-01-16 06:40:00,
2013-01-16 01:50:00,29.5,23.2,30.21,ESE,103,0.0,0.0,77,0.00,,---,0.00,VWS V14.01,2013-01-16 06:50:00,
2013-01-16 02:00:00,29.4,23.4,30.20,ESE,103,0.0,1.0,78,0.00,,---,0.00,VWS V14.01,2013-01-16 07:00:00,
2013-01-16 02:10:00,29.2,24.7,30.21,ESE,103,0.0,0.0,83,0.00,,---,0.00,VWS V14.01,2013-01-16 07:10:00,
2013-01-16 02:20:00,28.9,25.2,30.21,ESE,103,0.0,0.0,86,0.00,,---,0.00,VWS V14.01,2013-01-16 07:20:00,
2013-01-16 02:30:00,28.4,25.3,30.21,ESE,103,0.0,0.0,88,0.00,,---,0.00,VWS V14.01,2013-01-16 07:30:00,
2013-01-16 02:40:00,27.9,25.4,30.21,ESE,103,0.0,0.0,90,0.00,,---,0.00,VWS V14.01,2013-01-16 07:40:00,
2013-01-16 02:50:00,27.5,25.2,30.20,ESE,103,0.0,0.0,91,0.00,,---,0.00,VWS V14.01,2013-01-16 07:50:00,
2013-01-16 03:00:00,27.2,25.2,30.20,ESE,103,0.0,0.0,92,0.00,,---,0.00,VWS V14.01,2013-01-16 08:00:00,
2013-01-16 03:10:00,27.1,25.4,30.18,ESE,103,0.0,0.0,93,0.00,,---,0.00,VWS V14.01,2013-01-16 08:10:00,
2013-01-16 03:20:00,27.1,25.6,30.18,ESE,103,0.0,1.0,94,0.00,,---,0.00,VWS V14.01,2013-01-16 08:20:00,
2013-01-16 03:30:00,27.0,25.5,30.16,ESE,103,0.0,1.0,94,0.00,,---,0.00,VWS V14.01,2013-01-16 08:30:00,
2013-01-16 03:40:00,26.8,25.3,30.16,ESE,103,0.0,1.0,94,0.00,,---,0.00,VWS V14.01,2013-01-16 08:40:00,
2013-01-16 03:50:00,26.7,25.2,30.15,ESE,103,0.0,1.0,94,0.00,,---,0.00,VWS V14.01,2013-01-16 08:50:00,
2013-01-16 04:00:00,26.6,25.1,30.14,ESE,103,0.0,0.0,94,0.00,,---,0.00,VWS V14.01,2013-01-16 09:00:00,
2013-01-16 04:10:00,26.6,25.1,30.13,ESE,103,0.0,0.0,94,0.00,,---,0.00,VWS V14.01,2013-01-16 09:10:00,
2013-01-16 04:20:00,26.5,25.0,30.12,ESE,103,0.0,0.0,94,0.00,,---,0.00,VWS V14.01,2013-01-16 09:20:00,
2013-01-16 04:30:00,26.5,25.3,30.12,ESE,103,0.0,0.0,95,0.00,,---,0.00,VWS V14.01,2013-01-16 09:30:00,
2013-01-16 04:40:00,26.5,25.3,30.12,ESE,103,0.0,0.0,95,0.00,,---,0.00,VWS V14.01,2013-01-16 09:40:00,
2013-01-16 04:50:00,26.5,25.3,30.11,ESE,103,0.0,0.0,95,0.00,,---,0.00,VWS V14.01,2013-01-16 09:50:00,
2013-01-16 05:00:00,26.5,25.3,30.11,ESE,103,0.0,0.0,95,0.00,,---,0.00,VWS V14.01,2013-01-16 10:00:00,
2013-01-16 05:10:00,26.4,25.2,30.11,ESE,103,0.0,0.0,95,0.00,,---,0.00,VWS V14.01,2013-01-16 10:10:00,
2013-01-16 05:20:00,26.5,25.3,30.10,ESE,103,0.0,0.0,95,0.00,,---,0.00,VWS V14.01,2013-01-16 10:20:00,
2013-01-16 05:30:00,26.5,25.3,30.10,ESE,103,0.0,0.0,95,0.00,,---,0.00,VWS V14.01,2013-01-16 10:30:00,
2013-01-16 05:40:00,26.5,25.3,30.11,ESE,103,0.0,0.0,95,0.00,,---,0.00,VWS V14.01,2013-01-16 10:40:00,
2013-01-16 05:50:00,26.6,25.4,30.10,ESE,103,0.0,0.0,95,0.00,,---,0.00,VWS V14.01,2013-01-16 10:50:00,
2013-01-16 06:00:00,26.6,25.4,30.10,ESE,103,0.0,0.0,95,0.00,,---,0.00,VWS V14.01,2013-01-16 11:00:00,
2013-01-16 06:10:00,26.7,25.5,30.10,ESE,103,0.0,0.0,95,0.00,,---,0.00,VWS V14.01,2013-01-16 11:10:00,
2013-01-16 06:20:00,26.7,25.5,30.09,ESE,103,0.0,0.0,95,0.00,,---,0.00,VWS V14.01,2013-01-16 11:20:00,
2013-01-16 06:30:00,26.8,25.6,30.10,ESE,103,0.0,0.0,95,0.00,,---,0.00,VWS V14.01,2013-01-16 11:30:00,
2013-01-16 06:40:00,26.9,25.7,30.09,ESE,103,0.0,0.0,95,0.00,,---,0.00,VWS V14.01,2013-01-16 11:40:00,
2013-01-16 06:50:00,26.9,25.7,30.08,ESE,103,0.0,0.0,95,0.00,,---,0.00,VWS V14.01,2013-01-16 11:50:00,
2013-01-16 07:00:00,26.9,25.7,30.08,ESE,103,0.0,1.0,95,0.00,,---,0.00,VWS V14.01,2013-01-16 12:00:00,
2013-01-16 07:10:00,27.0,25.8,30.08,ESE,103,0.0,0.0,95,0.00,,---,0.00,VWS V14.01,2013-01-16 12:10:00,
2013-01-16 07:20:00,27.0,25.8,30.08,ESE,103,0.0,1.0,95,0.00,,---,0.00,VWS V14.01,2013-01-16 12:20:00,
2013-01-16 07:30:00,27.0,25.8,30.08,ESE,103,0.0,1.0,95,0.00,,---,0.00,VWS V14.01,2013-01-16 12:30:00,
2013-01-16 07:40:00,27.1,25.9,30.06,ESE,104,0.0,2.0,95,0.00,,---,0.00,VWS V14.01,2013-01-16 12:40:00,
2013-01-16 07:50:00,27.1,25.9,30.07,ESE,104,0.0,1.0,95,0.00,,---,0.00,VWS V14.01,2013-01-16 12:50:00,
2013-01-16 08:00:00,27.2,26.0,30.06,ESE,104,0.0,1.0,95,0.00,,---,0.00,VWS V14.01,2013-01-16 13:00:00,
2013-01-16 08:10:00,27.3,26.1,30.06,ESE,104,0.0,1.0,95,0.00,,---,0.00,VWS V14.01,2013-01-16 13:10:00,
2013-01-16 08:20:00,27.4,26.2,30.05,ESE,104,0.0,2.0,95,0.00,,---,0.00,VWS V14.01,2013-01-16 13:20:00,
2013-01-16 08:30:00,27.4,26.2,30.05,ESE,104,0.0,2.0,95,0.00,,---,0.00,VWS V14.01,2013-01-16 13:30:00,
2013-01-16 08:40:00,27.6,26.4,30.04,ESE,104,0.0,1.0,95,0.00,,---,0.00,VWS V14.01,2013-01-16 13:40:00,
2013-01-16 08:50:00,27.8,26.6,30.02,ESE,104,0.0,0.0,95,0.00,,---,0.00,VWS V14.01,2013-01-16 13:50:00,
2013-01-16 09:00:00,27.9,26.7,30.02,ESE,104,0.0,1.0,95,0.00,,---,0.00,VWS V14.01,2013-01-16 14:00:00,
2013-01-16 09:10:00,28.0,26.8,30.00,ESE,104,0.0,1.0,95,0.00,,---,0.00,VWS V14.01,2013-01-16 14:10:00,
2013-01-16 09:20:00,28.1,26.9,30.00,SE,136,0.0,2.0,95,0.00,,---,0.00,VWS V14.01,2013-01-16 14:20:00,
2013-01-16 09:30:00,28.2,27.2,30.01,WNW,302,0.0,3.0,96,0.00,,---,0.00,VWS V14.01,2013-01-16 14:30:00,
2013-01-16 09:40:00,28.3,27.3,30.00,WNW,286,1.0,3.0,96,0.00,,---,0.00,VWS V14.01,2013-01-16 14:40:00,
2013-01-16 09:50:00,28.4,27.4,30.00,WNW,299,1.0,3.0,96,0.00,,---,0.00,VWS V14.01,2013-01-16 14:50:00,
2013-01-16 10:00:00,28.6,27.6,30.00,WNW,299,0.0,2.0,96,0.00,,---,0.00,VWS V14.01,2013-01-16 15:00:00,
2013-01-16 10:10:00,28.8,27.8,30.00,WNW,299,0.0,0.0,96,0.00,,---,0.00,VWS V14.01,2013-01-16 15:10:00,
2013-01-16 10:20:00,29.1,28.1,29.98,WNW,299,0.0,0.0,96,0.00,,---,0.00,VWS V14.01,2013-01-16 15:20:00,
2013-01-16 10:30:00,29.3,28.6,29.97,WNW,299,0.0,0.0,97,0.00,,---,0.00,VWS V14.01,2013-01-16 15:30:00,
2013-01-16 10:40:00,29.6,28.9,29.98,WNW,288,3.0,3.0,97,0.00,,---,0.00,VWS V14.01,2013-01-16 15:40:00,
2013-01-16 10:50:00,29.5,28.5,29.99,WNW,294,0.0,4.0,96,0.00,,---,0.00,VWS V14.01,2013-01-16 15:50:00,
2013-01-16 11:00:00,29.6,28.9,29.97,WNW,294,0.0,0.0,97,0.00,,---,0.00,VWS V14.01,2013-01-16 16:00:00,
2013-01-16 11:10:00,29.7,29.0,29.96,WNW,294,0.0,0.0,97,0.00,,---,0.00,VWS V14.01,2013-01-16 16:10:00,
2013-01-16 11:20:00,29.8,29.0,29.97,WNW,294,0.0,1.0,97,0.00,,---,0.00,VWS V14.01,2013-01-16 16:20:00,
2013-01-16 11:30:00,30.0,29.2,29.97,WNW,294,0.0,0.0,97,0.00,,---,0.00,VWS V14.01,2013-01-16 16:30:00,
2013-01-16 11:40:00,30.2,29.5,29.95,WNW,294,0.0,0.0,97,0.00,,---,0.00,VWS V14.01,2013-01-16 16:40:00,
2013-01-16 11:50:00,30.3,29.5,29.94,WNW,294,0.0,0.0,97,0.00,,---,0.00,VWS V14.01,2013-01-16 16:50:00,
2013-01-16 12:00:00,30.1,29.1,29.92,WNW,294,0.0,2.0,96,0.00,,---,0.00,VWS V14.01,2013-01-16 17:00:00,
2013-01-16 12:10:00,29.9,28.9,29.94,WNW,294,0.0,1.0,96,0.00,,---,0.00,VWS V14.01,2013-01-16 17:10:00,
2013-01-16 12:20:00,30.0,29.2,29.96,WNW,294,0.0,1.0,97,0.00,,---,0.00,VWS V14.01,2013-01-16 17:20:00,
2013-01-16 12:30:00,30.1,29.4,29.90,WNW,294,0.0,2.0,97,0.00,,---,0.00,VWS V14.01,2013-01-16 17:30:00,
2013-01-16 12:40:00,30.3,29.5,29.93,WNW,294,0.0,0.0,97,0.00,,---,0.00,VWS V14.01,2013-01-16 17:40:00,
2013-01-16 12:50:00,30.3,29.5,29.87,WNW,294,0.0,0.0,97,0.00,,---,0.00,VWS V14.01,2013-01-16 17:50:00,
2013-01-16 13:00:00,30.3,29.5,29.86,WNW,294,0.0,0.0,97,0.00,,---,0.00,VWS V14.01,2013-01-16 18:00:00,
2013-01-16 13:10:00,30.3,29.5,29.88,WNW,294,0.0,1.0,97,0.00,,---,0.00,VWS V14.01,2013-01-16 18:10:00,
2013-01-16 13:20:00,30.2,29.5,29.86,WNW,294,0.0,0.0,97,0.00,,---,0.00,VWS V14.01,2013-01-16 18:20:00,
2013-01-16 13:30:00,30.2,29.5,29.88,WNW,294,0.0,0.0,97,0.00,,---,0.00,VWS V14.01,2013-01-16 18:30:00,
2013-01-16 13:40:00,30.3,29.5,29.86,WNW,294,0.0,0.0,97,0.00,,---,0.00,VWS V14.01,2013-01-16 18:40:00,
2013-01-16 13:50:00,30.3,29.5,29.87,WNW,294,0.0,0.0,97,0.00,,---,0.00,VWS V14.01,2013-01-16 18:50:00,
2013-01-16 14:00:00,30.3,29.5,29.88,WNW,294,0.0,0.0,97,0.00,,---,0.00,VWS V14.01,2013-01-16 19:00:00,
2013-01-16 14:10:00,30.4,29.6,29.89,WNW,294,0.0,0.0,97,0.00,,---,0.00,VWS V14.01,2013-01-16 19:10:00,
2013-01-16 14:20:00,30.6,29.9,29.88,WNW,294,0.0,0.0,97,0.00,,---,0.00,VWS V14.01,2013-01-16 19:20:00,
2013-01-16 14:30:00,30.7,30.0,29.87,WNW,294,0.0,0.0,97,0.00,,---,0.00,VWS V14.01,2013-01-16 19:30:00,
2013-01-16 14:40:00,30.8,30.0,29.87,WNW,294,0.0,0.0,97,0.00,,---,0.00,VWS V14.01,2013-01-16 19:40:00,
2013-01-16 14:50:00,30.9,30.1,29.87,WNW,294,0.0,0.0,97,0.00,,---,0.00,VWS V14.01,2013-01-16 19:50:00,
2013-01-16 15:00:00,31.0,30.2,29.86,WNW,294,0.0,0.0,97,0.00,,---,0.00,VWS V14.01,2013-01-16 20:00:00,
2013-01-16 15:10:00,31.1,30.4,29.86,WNW,294,0.0,0.0,97,0.00,,---,0.00,VWS V14.01,2013-01-16 20:10:00,
2013-01-16 15:20:00,31.1,30.4,29.85,WNW,294,0.0,0.0,97,0.00,,---,0.00,VWS V14.01,2013-01-16 20:20:00,
2013-01-16 15:30:00,31.0,30.2,29.86,WNW,294,0.0,0.0,97,0.00,,---,0.00,VWS V14.01,2013-01-16 20:30:00,
2013-01-16 15:40:00,31.1,30.4,29.85,WNW,294,0.0,0.0,97,0.00,,---,0.00,VWS V14.01,2013-01-16 20:40:00,
2013-01-16 15:50:00,31.1,30.4,29.85,WNW,294,0.0,0.0,97,0.00,,---,0.00,VWS V14.01,2013-01-16 20:50:00,
2013-01-16 16:00:00,31.2,30.5,29.84,WNW,294,0.0,0.0,97,0.00,,---,0.00,VWS V14.01,2013-01-16 21:00:00,
2013-01-16 16:10:00,31.2,30.5,29.84,WNW,294,0.0,0.0,97,0.00,,---,0.00,VWS V14.01,2013-01-16 21:10:00,
2013-01-16 16:20:00,31.2,30.5,29.84,WNW,294,0.0,0.0,97,0.00,,---,0.00,VWS V14.01,2013-01-16 21:20:00,
2013-01-16 16:30:00,31.3,30.5,29.84,WNW,294,0.0,0.0,97,0.00,,---,0.00,VWS V14.01,2013-01-16 21:30:00,
2013-01-16 16:40:00,31.4,30.6,29.85,WNW,294,0.0,0.0,97,0.00,,---,0.00,VWS V14.01,2013-01-16 21:40:00,
2013-01-16 16:50:00,31.4,30.6,29.85,WNW,294,0.0,0.0,97,0.00,,---,0.00,VWS V14.01,2013-01-16 21:50:00,
2013-01-16 17:00:00,31.5,30.8,29.85,WNW,294,0.0,0.0,97,0.00,,---,0.00,VWS V14.01,2013-01-16 22:00:00,
2013-01-16 17:10:00,31.5,30.8,29.85,WNW,294,0.0,0.0,97,0.00,,---,0.00,VWS V14.01,2013-01-16 22:10:00,
2013-01-16 17:20:00,31.5,30.8,29.83,WNW,294,0.0,0.0,97,0.00,,---,0.00,VWS V14.01,2013-01-16 22:20:00,
2013-01-16 17:30:00,31.4,30.6,29.83,WNW,294,0.0,0.0,97,0.00,,---,0.00,VWS V14.01,2013-01-16 22:30:00,
2013-01-16 17:40:00,31.4,30.6,29.84,WNW,294,0.0,0.0,97,0.00,,---,0.00,VWS V14.01,2013-01-16 22:40:00,
2013-01-16 17:50:00,31.3,30.5,29.85,WNW,294,0.0,0.0,97,0.00,,---,0.00,VWS V14.01,2013-01-16 22:50:00,
2013-01-16 18:00:00,31.3,30.5,29.86,WNW,294,0.0,0.0,97,0.00,,---,0.00,VWS V14.01,2013-01-16 23:00:00,
2013-01-16 18:10:00,31.3,30.5,29.83,WNW,294,0.0,0.0,97,0.00,,---,0.00,VWS V14.01,2013-01-16 23:10:00,
2013-01-16 18:20:00,31.3,30.5,29.84,WNW,294,0.0,0.0,97,0.00,,---,0.00,VWS V14.01,2013-01-16 23:20:00,
2013-01-16 18:30:00,31.3,30.5,29.84,WNW,294,0.0,0.0,97,0.00,,---,0.00,VWS V14.01,2013-01-16 23:30:00,
2013-01-16 18:40:00,31.3,30.3,29.84,WNW,294,0.0,0.0,96,0.00,,---,0.00,VWS V14.01,2013-01-16 23:40:00,
2013-01-16 18:50:00,31.2,30.2,29.85,WNW,294,0.0,0.0,96,0.00,,---,0.00,VWS V14.01,2013-01-16 23:50:00,
2013-01-16 19:00:00,31.1,30.1,29.85,WNW,294,0.0,0.0,96,0.00,,---,0.00,VWS V14.01,2013-01-17 00:00:00,
2013-01-16 19:10:00,31.1,30.1,29.86,WNW,294,0.0,0.0,96,0.00,,---,0.00,VWS V14.01,2013-01-17 00:10:00,
2013-01-16 19:20:00,31.2,30.2,29.84,WNW,294,0.0,0.0,96,0.00,,---,0.00,VWS V14.01,2013-01-17 00:20:00,
2013-01-16 19:30:00,31.1,29.8,29.86,WNW,294,0.0,0.0,95,0.00,,---,0.00,VWS V14.01,2013-01-17 00:30:00,
2013-01-16 19:40:00,30.9,29.9,29.86,WNW,294,0.0,0.0,96,0.00,,---,0.00,VWS V14.01,2013-01-17 00:40:00,
2013-01-16 19:50:00,30.6,29.3,29.85,WNW,294,0.0,0.0,95,0.00,,---,0.00,VWS V14.01,2013-01-17 00:50:00,
2013-01-16 20:00:00,30.2,28.9,29.86,WNW,294,0.0,0.0,95,0.00,,---,0.00,VWS V14.01,2013-01-17 01:00:00,
2013-01-16 20:10:00,29.8,28.8,29.85,WNW,294,0.0,0.0,96,0.00,,---,0.00,VWS V14.01,2013-01-17 01:10:00,
2013-01-16 20:20:00,29.9,28.9,29.85,WNW,294,0.0,0.0,96,0.00,,---,0.00,VWS V14.01,2013-01-17 01:20:00,
2013-01-16 20:30:00,29.9,28.9,29.85,WNW,294,0.0,0.0,96,0.00,,---,0.00,VWS V14.01,2013-01-17 01:30:00,
2013-01-16 20:40:00,30.5,29.8,29.86,WNW,294,0.0,0.0,97,0.00,,---,0.00,VWS V14.01,2013-01-17 01:40:00,
2013-01-16 20:50:00,30.5,29.5,29.86,WNW,294,0.0,0.0,96,0.00,,---,0.00,VWS V14.01,2013-01-17 01:50:00,
2013-01-16 21:00:00,30.5,29.5,29.86,WNW,294,0.0,0.0,96,0.00,,---,0.00,VWS V14.01,2013-01-17 02:00:00,
2013-01-16 21:10:00,30.4,29.4,29.85,WNW,294,0.0,0.0,96,0.00,,---,0.00,VWS V14.01,2013-01-17 02:10:00,
2013-01-16 21:20:00,30.4,29.4,29.86,WNW,294,0.0,0.0,96,0.00,,---,0.00,VWS V14.01,2013-01-17 02:20:00,
2013-01-16 21:30:00,30.4,29.4,29.87,WNW,294,0.0,0.0,96,0.00,,---,0.00,VWS V14.01,2013-01-17 02:30:00,
2013-01-16 21:40:00,30.3,29.3,29.86,WNW,294,0.0,0.0,96,0.00,,---,0.00,VWS V14.01,2013-01-17 02:40:00,
2013-01-16 21:50:00,30.5,29.8,29.87,WNW,294,0.0,0.0,97,0.00,,---,0.00,VWS V14.01,2013-01-17 02:50:00,
2013-01-16 22:00:00,30.6,29.6,29.86,WNW,294,0.0,0.0,96,0.00,,---,0.00,VWS V14.01,2013-01-17 03:00:00,
2013-01-16 22:10:00,31.0,30.0,29.86,WNW,294,0.0,0.0,96,0.00,,---,0.00,VWS V14.01,2013-01-17 03:10:00,
2013-01-16 22:20:00,31.3,30.3,29.85,WNW,294,0.0,0.0,96,0.00,,---,0.00,VWS V14.01,2013-01-17 03:20:00,
2013-01-16 22:30:00,31.4,30.1,29.86,WNW,294,0.0,0.0,95,0.00,,---,0.00,VWS V14.01,2013-01-17 03:30:00,
2013-01-16 22:40:00,31.6,30.3,29.86,WNW,294,0.0,0.0,95,0.00,,---,0.00,VWS V14.01,2013-01-17 03:40:00,
2013-01-16 22:50:00,31.6,30.1,29.86,WNW,294,0.0,0.0,94,0.00,,---,0.00,VWS V14.01,2013-01-17 03:50:00,
2013-01-16 23:00:00,31.4,29.9,29.87,WNW,294,0.0,0.0,94,0.00,,---,0.00,VWS V14.01,2013-01-17 04:00:00,
2013-01-16 23:10:00,31.2,29.7,29.87,WNW,294,0.0,0.0,94,0.00,,---,0.00,VWS V14.01,2013-01-17 04:10:00,
2013-01-16 23:20:00,31.1,29.8,29.86,WNW,294,0.0,0.0,95,0.00,,---,0.00,VWS V14.01,2013-01-17 04:20:00,
2013-01-16 23:30:00,31.0,29.5,29.86,WNW,294,0.0,0.0,94,0.00,,---,0.00,VWS V14.01,2013-01-17 04:30:00,
2013-01-16 23:40:00,30.8,29.5,29.87,WNW,294,0.0,0.0,95,0.00,,---,0.00,VWS V14.01,2013-01-17 04:40:00,
2013-01-16 23:50:00,30.8,29.5,29.87,WNW,294,0.0,0.0,95,0.00,,---,0.00,VWS V14.01,2013-01-17 04:50:00,